sensor_id;sensor_type;location;lat;lon;timestamp;P1;durP1;ratioP1;P2;durP2;ratioP2
12181;SDS011;6154;51.550;12.138;2023-03-19T00:01:01;8.43;;;4.90;;
12181;SDS011;6154;51.550;12.138;2023-03-19T00:03:30;8.73;;;5.40;;
12181;SDS011;6154;51.550;12.138;2023-03-19T00:05:59;12.05;;;5.30;;
12181;SDS011;6154;51.550;12.138;2023-03-19T00:08:27;7.57;;;5.40;;
12181;SDS011;6154;51.550;12.138;2023-03-19T00:10:57;7.15;;;5.20;;
12181;SDS011;6154;51.550;12.138;2023-03-19T00:13:28;8.32;;;5.25;;
12181;SDS011;6154;51.550;12.138;2023-03-19T00:15:56;10.75;;;5.60;;
12181;SDS011;6154;51.550;12.138;2023-03-19T00:18:24;9.13;;;5.97;;
12181;SDS011;6154;51.550;12.138;2023-03-19T00:20:52;9.48;;;5.68;;
12181;SDS011;6154;51.550;12.138;2023-03-19T00:23:20;9.25;;;5.60;;
12181;SDS011;6154;51.550;12.138;2023-03-19T00:25:48;9.88;;;6.18;;
12181;SDS011;6154;51.550;12.138;2023-03-19T00:28:18;10.77;;;5.68;;
12181;SDS011;6154;51.550;12.138;2023-03-19T00:30:46;10.98;;;5.72;;
12181;SDS011;6154;51.550;12.138;2023-03-19T00:33:15;9.50;;;5.50;;
12181;SDS011;6154;51.550;12.138;2023-03-19T00:35:44;10.05;;;5.65;;
12181;SDS011;6154;51.550;12.138;2023-03-19T00:38:13;8.75;;;5.97;;
12181;SDS011;6154;51.550;12.138;2023-03-19T00:40:41;10.98;;;5.95;;
12181;SDS011;6154;51.550;12.138;2023-03-19T00:43:09;10.00;;;5.70;;
12181;SDS011;6154;51.550;12.138;2023-03-19T00:45:39;8.15;;;5.28;;
12181;SDS011;6154;51.550;12.138;2023-03-19T00:48:07;11.77;;;6.15;;
12181;SDS011;6154;51.550;12.138;2023-03-19T00:50:35;8.63;;;6.03;;
12181;SDS011;6154;51.550;12.138;2023-03-19T00:53:05;8.80;;;5.12;;
12181;SDS011;6154;51.550;12.138;2023-03-19T00:55:33;8.27;;;5.37;;
12181;SDS011;6154;51.550;12.138;2023-03-19T00:58:01;7.72;;;5.22;;
12181;SDS011;6154;51.550;12.138;2023-03-19T01:00:29;8.95;;;5.18;;
12181;SDS011;6154;51.550;12.138;2023-03-19T01:02:59;8.57;;;5.20;;
12181;SDS011;6154;51.550;12.138;2023-03-19T01:05:28;8.20;;;5.60;;
12181;SDS011;6154;51.550;12.138;2023-03-19T01:07:57;10.35;;;6.00;;
12181;SDS011;6154;51.550;12.138;2023-03-19T01:10:25;9.27;;;4.93;;
12181;SDS011;6154;51.550;12.138;2023-03-19T01:12:53;10.30;;;5.15;;
12181;SDS011;6154;51.550;12.138;2023-03-19T01:15:21;8.32;;;5.60;;
12181;SDS011;6154;51.550;12.138;2023-03-19T01:17:49;7.22;;;4.32;;
12181;SDS011;6154;51.550;12.138;2023-03-19T01:20:19;11.38;;;5.72;;
12181;SDS011;6154;51.550;12.138;2023-03-19T01:22:52;6.80;;;5.07;;
12181;SDS011;6154;51.550;12.138;2023-03-19T01:25:20;9.00;;;5.40;;
12181;SDS011;6154;51.550;12.138;2023-03-19T01:27:49;10.35;;;5.40;;
12181;SDS011;6154;51.550;12.138;2023-03-19T01:30:18;9.27;;;5.12;;
12181;SDS011;6154;51.550;12.138;2023-03-19T01:32:48;10.30;;;6.15;;
12181;SDS011;6154;51.550;12.138;2023-03-19T01:35:18;9.77;;;5.15;;
12181;SDS011;6154;51.550;12.138;2023-03-19T01:37:46;13.82;;;5.90;;
12181;SDS011;6154;51.550;12.138;2023-03-19T01:40:14;9.63;;;5.30;;
12181;SDS011;6154;51.550;12.138;2023-03-19T01:42:50;11.05;;;5.47;;
12181;SDS011;6154;51.550;12.138;2023-03-19T01:45:28;12.10;;;6.05;;
12181;SDS011;6154;51.550;12.138;2023-03-19T01:47:58;10.00;;;5.22;;
12181;SDS011;6154;51.550;12.138;2023-03-19T01:50:30;10.85;;;5.90;;
12181;SDS011;6154;51.550;12.138;2023-03-19T01:53:09;8.52;;;5.07;;
12181;SDS011;6154;51.550;12.138;2023-03-19T01:55:40;8.30;;;4.93;;
12181;SDS011;6154;51.550;12.138;2023-03-19T01:58:09;8.88;;;5.03;;
12181;SDS011;6154;51.550;12.138;2023-03-19T02:00:38;8.52;;;5.45;;
12181;SDS011;6154;51.550;12.138;2023-03-19T02:03:06;9.80;;;5.45;;
12181;SDS011;6154;51.550;12.138;2023-03-19T02:05:37;5.82;;;4.70;;
12181;SDS011;6154;51.550;12.138;2023-03-19T02:08:09;8.25;;;4.85;;
12181;SDS011;6154;51.550;12.138;2023-03-19T02:10:41;8.88;;;5.07;;
12181;SDS011;6154;51.550;12.138;2023-03-19T02:13:12;11.55;;;5.00;;
12181;SDS011;6154;51.550;12.138;2023-03-19T02:15:41;7.50;;;4.47;;
12181;SDS011;6154;51.550;12.138;2023-03-19T02:18:09;7.68;;;5.30;;
12181;SDS011;6154;51.550;12.138;2023-03-19T02:20:41;7.37;;;4.85;;
12181;SDS011;6154;51.550;12.138;2023-03-19T02:23:14;10.60;;;4.90;;
12181;SDS011;6154;51.550;12.138;2023-03-19T02:25:54;7.43;;;4.57;;
12181;SDS011;6154;51.550;12.138;2023-03-19T02:28:28;8.32;;;4.80;;
12181;SDS011;6154;51.550;12.138;2023-03-19T02:30:58;8.15;;;4.75;;
12181;SDS011;6154;51.550;12.138;2023-03-19T02:33:27;7.55;;;4.65;;
12181;SDS011;6154;51.550;12.138;2023-03-19T02:35:55;8.68;;;5.00;;
12181;SDS011;6154;51.550;12.138;2023-03-19T02:38:26;7.07;;;5.00;;
12181;SDS011;6154;51.550;12.138;2023-03-19T02:40:58;7.22;;;4.55;;
12181;SDS011;6154;51.550;12.138;2023-03-19T02:43:30;7.15;;;4.37;;
12181;SDS011;6154;51.550;12.138;2023-03-19T02:45:59;6.70;;;4.25;;
12181;SDS011;6154;51.550;12.138;2023-03-19T02:48:28;7.00;;;4.87;;
12181;SDS011;6154;51.550;12.138;2023-03-19T02:50:57;10.90;;;4.90;;
12181;SDS011;6154;51.550;12.138;2023-03-19T02:53:25;10.27;;;5.07;;
12181;SDS011;6154;51.550;12.138;2023-03-19T02:55:53;9.20;;;4.82;;
12181;SDS011;6154;51.550;12.138;2023-03-19T02:58:23;8.73;;;4.82;;
12181;SDS011;6154;51.550;12.138;2023-03-19T03:00:51;6.57;;;5.15;;
12181;SDS011;6154;51.550;12.138;2023-03-19T03:03:19;10.73;;;5.05;;
12181;SDS011;6154;51.550;12.138;2023-03-19T03:05:47;6.97;;;5.28;;
12181;SDS011;6154;51.550;12.138;2023-03-19T03:08:15;8.07;;;4.82;;
12181;SDS011;6154;51.550;12.138;2023-03-19T03:10:44;9.90;;;5.05;;
12181;SDS011;6154;51.550;12.138;2023-03-19T03:13:14;11.40;;;6.03;;
12181;SDS011;6154;51.550;12.138;2023-03-19T03:15:44;9.00;;;5.10;;
12181;SDS011;6154;51.550;12.138;2023-03-19T03:18:12;7.87;;;5.37;;
12181;SDS011;6154;51.550;12.138;2023-03-19T03:20:40;7.28;;;5.20;;
12181;SDS011;6154;51.550;12.138;2023-03-19T03:23:08;8.95;;;5.65;;
12181;SDS011;6154;51.550;12.138;2023-03-19T03:25:37;9.32;;;5.32;;
12181;SDS011;6154;51.550;12.138;2023-03-19T03:28:05;8.68;;;5.30;;
12181;SDS011;6154;51.550;12.138;2023-03-19T03:30:33;8.48;;;5.37;;
12181;SDS011;6154;51.550;12.138;2023-03-19T03:33:03;9.45;;;5.32;;
12181;SDS011;6154;51.550;12.138;2023-03-19T03:35:31;11.10;;;5.20;;
12181;SDS011;6154;51.550;12.138;2023-03-19T03:37:59;5.95;;;4.20;;
12181;SDS011;6154;51.550;12.138;2023-03-19T03:40:29;10.63;;;4.75;;
12181;SDS011;6154;51.550;12.138;2023-03-19T03:42:59;7.53;;;5.22;;
12181;SDS011;6154;51.550;12.138;2023-03-19T03:45:28;11.07;;;4.85;;
12181;SDS011;6154;51.550;12.138;2023-03-19T03:47:57;6.68;;;4.60;;
12181;SDS011;6154;51.550;12.138;2023-03-19T03:50:27;9.23;;;4.62;;
12181;SDS011;6154;51.550;12.138;2023-03-19T03:52:56;12.43;;;5.37;;
12181;SDS011;6154;51.550;12.138;2023-03-19T03:55:24;11.40;;;5.28;;
12181;SDS011;6154;51.550;12.138;2023-03-19T03:57:54;15.80;;;5.35;;
12181;SDS011;6154;51.550;12.138;2023-03-19T04:00:22;8.25;;;4.62;;
12181;SDS011;6154;51.550;12.138;2023-03-19T04:02:51;8.80;;;5.28;;
12181;SDS011;6154;51.550;12.138;2023-03-19T04:05:19;12.77;;;5.62;;
12181;SDS011;6154;51.550;12.138;2023-03-19T04:07:50;8.70;;;5.68;;
12181;SDS011;6154;51.550;12.138;2023-03-19T04:10:19;11.18;;;5.00;;
12181;SDS011;6154;51.550;12.138;2023-03-19T04:12:47;7.53;;;4.78;;
12181;SDS011;6154;51.550;12.138;2023-03-19T04:15:15;8.75;;;4.93;;
12181;SDS011;6154;51.550;12.138;2023-03-19T04:17:45;9.07;;;5.25;;
12181;SDS011;6154;51.550;12.138;2023-03-19T04:20:13;6.32;;;5.00;;
12181;SDS011;6154;51.550;12.138;2023-03-19T04:22:44;7.90;;;4.80;;
12181;SDS011;6154;51.550;12.138;2023-03-19T04:25:14;6.03;;;4.55;;
12181;SDS011;6154;51.550;12.138;2023-03-19T04:27:42;8.48;;;4.78;;
12181;SDS011;6154;51.550;12.138;2023-03-19T04:30:11;6.53;;;3.85;;
12181;SDS011;6154;51.550;12.138;2023-03-19T04:32:40;8.27;;;4.25;;
12181;SDS011;6154;51.550;12.138;2023-03-19T04:35:10;8.80;;;4.65;;
12181;SDS011;6154;51.550;12.138;2023-03-19T04:37:38;7.10;;;4.75;;
12181;SDS011;6154;51.550;12.138;2023-03-19T04:40:09;9.82;;;4.53;;
12181;SDS011;6154;51.550;12.138;2023-03-19T04:42:41;10.10;;;5.20;;
12181;SDS011;6154;51.550;12.138;2023-03-19T04:45:10;8.00;;;4.82;;
12181;SDS011;6154;51.550;12.138;2023-03-19T04:47:39;6.18;;;4.47;;
12181;SDS011;6154;51.550;12.138;2023-03-19T04:50:08;6.47;;;4.85;;
12181;SDS011;6154;51.550;12.138;2023-03-19T04:52:40;6.12;;;4.25;;
12181;SDS011;6154;51.550;12.138;2023-03-19T04:55:11;8.18;;;4.87;;
12181;SDS011;6154;51.550;12.138;2023-03-19T04:57:43;7.15;;;4.85;;
12181;SDS011;6154;51.550;12.138;2023-03-19T05:00:12;8.52;;;5.70;;
12181;SDS011;6154;51.550;12.138;2023-03-19T05:02:42;7.30;;;4.20;;
12181;SDS011;6154;51.550;12.138;2023-03-19T05:05:10;10.25;;;5.53;;
12181;SDS011;6154;51.550;12.138;2023-03-19T05:07:39;10.10;;;4.70;;
12181;SDS011;6154;51.550;12.138;2023-03-19T05:10:12;10.10;;;5.30;;
12181;SDS011;6154;51.550;12.138;2023-03-19T05:12:42;5.40;;;4.28;;
12181;SDS011;6154;51.550;12.138;2023-03-19T05:15:13;8.50;;;4.37;;
12181;SDS011;6154;51.550;12.138;2023-03-19T05:17:47;5.68;;;4.32;;
12181;SDS011;6154;51.550;12.138;2023-03-19T05:20:18;8.63;;;4.82;;
12181;SDS011;6154;51.550;12.138;2023-03-19T05:22:46;6.53;;;4.12;;
12181;SDS011;6154;51.550;12.138;2023-03-19T05:25:14;8.85;;;5.25;;
12181;SDS011;6154;51.550;12.138;2023-03-19T05:27:44;10.82;;;5.53;;
12181;SDS011;6154;51.550;12.138;2023-03-19T05:30:13;8.18;;;5.05;;
12181;SDS011;6154;51.550;12.138;2023-03-19T05:32:42;9.77;;;5.57;;
12181;SDS011;6154;51.550;12.138;2023-03-19T05:35:13;8.40;;;5.40;;
12181;SDS011;6154;51.550;12.138;2023-03-19T05:37:41;7.70;;;5.03;;
12181;SDS011;6154;51.550;12.138;2023-03-19T05:40:10;6.03;;;4.53;;
12181;SDS011;6154;51.550;12.138;2023-03-19T05:42:40;7.20;;;4.72;;
12181;SDS011;6154;51.550;12.138;2023-03-19T05:45:09;10.65;;;5.18;;
12181;SDS011;6154;51.550;12.138;2023-03-19T05:47:38;7.00;;;5.07;;
12181;SDS011;6154;51.550;12.138;2023-03-19T05:50:07;7.57;;;5.03;;
12181;SDS011;6154;51.550;12.138;2023-03-19T05:52:38;8.73;;;5.12;;
12181;SDS011;6154;51.550;12.138;2023-03-19T05:55:06;7.25;;;5.00;;
12181;SDS011;6154;51.550;12.138;2023-03-19T05:57:35;5.80;;;4.45;;
12181;SDS011;6154;51.550;12.138;2023-03-19T06:00:05;9.15;;;5.78;;
12181;SDS011;6154;51.550;12.138;2023-03-19T06:02:41;8.50;;;4.95;;
12181;SDS011;6154;51.550;12.138;2023-03-19T06:05:10;9.00;;;4.62;;
12181;SDS011;6154;51.550;12.138;2023-03-19T06:07:39;11.82;;;4.95;;
12181;SDS011;6154;51.550;12.138;2023-03-19T06:10:08;8.52;;;5.32;;
12181;SDS011;6154;51.550;12.138;2023-03-19T06:12:37;11.02;;;6.15;;
12181;SDS011;6154;51.550;12.138;2023-03-19T06:15:09;8.02;;;4.95;;
12181;SDS011;6154;51.550;12.138;2023-03-19T06:17:40;11.30;;;5.28;;
12181;SDS011;6154;51.550;12.138;2023-03-19T06:20:10;9.45;;;5.55;;
12181;SDS011;6154;51.550;12.138;2023-03-19T06:22:40;9.43;;;5.55;;
12181;SDS011;6154;51.550;12.138;2023-03-19T06:25:08;12.93;;;5.45;;
12181;SDS011;6154;51.550;12.138;2023-03-19T06:27:36;7.93;;;5.35;;
12181;SDS011;6154;51.550;12.138;2023-03-19T06:30:07;9.13;;;5.12;;
12181;SDS011;6154;51.550;12.138;2023-03-19T06:32:38;9.57;;;5.72;;
12181;SDS011;6154;51.550;12.138;2023-03-19T06:35:09;8.10;;;5.30;;
12181;SDS011;6154;51.550;12.138;2023-03-19T06:37:38;7.95;;;5.28;;
12181;SDS011;6154;51.550;12.138;2023-03-19T06:40:06;10.38;;;5.45;;
12181;SDS011;6154;51.550;12.138;2023-03-19T06:42:35;7.62;;;5.65;;
12181;SDS011;6154;51.550;12.138;2023-03-19T06:45:04;10.73;;;6.20;;
12181;SDS011;6154;51.550;12.138;2023-03-19T06:47:33;14.13;;;6.20;;
12181;SDS011;6154;51.550;12.138;2023-03-19T06:50:01;8.73;;;5.45;;
12181;SDS011;6154;51.550;12.138;2023-03-19T06:52:33;9.43;;;5.95;;
12181;SDS011;6154;51.550;12.138;2023-03-19T06:55:02;10.65;;;5.87;;
12181;SDS011;6154;51.550;12.138;2023-03-19T06:57:30;8.45;;;5.53;;
12181;SDS011;6154;51.550;12.138;2023-03-19T06:59:59;6.62;;;4.93;;
12181;SDS011;6154;51.550;12.138;2023-03-19T07:02:27;9.15;;;5.70;;
12181;SDS011;6154;51.550;12.138;2023-03-19T07:04:55;9.45;;;5.50;;
12181;SDS011;6154;51.550;12.138;2023-03-19T07:07:23;10.25;;;6.10;;
12181;SDS011;6154;51.550;12.138;2023-03-19T07:09:53;10.65;;;5.97;;
12181;SDS011;6154;51.550;12.138;2023-03-19T07:12:21;7.68;;;5.20;;
12181;SDS011;6154;51.550;12.138;2023-03-19T07:14:53;10.32;;;6.00;;
12181;SDS011;6154;51.550;12.138;2023-03-19T07:17:22;9.48;;;5.90;;
12181;SDS011;6154;51.550;12.138;2023-03-19T07:19:53;8.70;;;6.05;;
12181;SDS011;6154;51.550;12.138;2023-03-19T07:22:21;8.18;;;5.53;;
12181;SDS011;6154;51.550;12.138;2023-03-19T07:24:49;9.68;;;5.57;;
12181;SDS011;6154;51.550;12.138;2023-03-19T07:27:19;10.35;;;6.32;;
12181;SDS011;6154;51.550;12.138;2023-03-19T07:29:47;7.43;;;5.43;;
12181;SDS011;6154;51.550;12.138;2023-03-19T07:32:15;10.68;;;5.68;;
12181;SDS011;6154;51.550;12.138;2023-03-19T07:34:43;8.57;;;5.43;;
12181;SDS011;6154;51.550;12.138;2023-03-19T07:37:12;9.45;;;5.45;;
12181;SDS011;6154;51.550;12.138;2023-03-19T07:39:40;8.52;;;5.90;;
12181;SDS011;6154;51.550;12.138;2023-03-19T07:42:08;7.70;;;5.53;;
12181;SDS011;6154;51.550;12.138;2023-03-19T07:44:39;9.30;;;5.28;;
12181;SDS011;6154;51.550;12.138;2023-03-19T07:47:07;12.35;;;6.47;;
12181;SDS011;6154;51.550;12.138;2023-03-19T07:49:53;7.87;;;5.70;;
12181;SDS011;6154;51.550;12.138;2023-03-19T07:52:22;12.13;;;6.12;;
12181;SDS011;6154;51.550;12.138;2023-03-19T07:54:50;7.22;;;5.82;;
12181;SDS011;6154;51.550;12.138;2023-03-19T07:57:19;10.68;;;6.25;;
12181;SDS011;6154;51.550;12.138;2023-03-19T07:59:48;8.90;;;6.15;;
12181;SDS011;6154;51.550;12.138;2023-03-19T08:02:16;9.50;;;6.53;;
12181;SDS011;6154;51.550;12.138;2023-03-19T08:04:48;12.60;;;5.70;;
12181;SDS011;6154;51.550;12.138;2023-03-19T08:07:16;8.57;;;6.15;;
12181;SDS011;6154;51.550;12.138;2023-03-19T08:09:45;10.38;;;6.25;;
12181;SDS011;6154;51.550;12.138;2023-03-19T08:12:14;12.05;;;6.35;;
12181;SDS011;6154;51.550;12.138;2023-03-19T08:14:42;9.43;;;6.12;;
12181;SDS011;6154;51.550;12.138;2023-03-19T08:17:11;9.60;;;5.78;;
12181;SDS011;6154;51.550;12.138;2023-03-19T08:19:39;9.63;;;5.75;;
12181;SDS011;6154;51.550;12.138;2023-03-19T08:22:08;8.43;;;6.00;;
12181;SDS011;6154;51.550;12.138;2023-03-19T08:24:36;10.10;;;6.05;;
12181;SDS011;6154;51.550;12.138;2023-03-19T08:27:04;9.07;;;5.97;;
12181;SDS011;6154;51.550;12.138;2023-03-19T08:29:33;7.80;;;5.90;;
12181;SDS011;6154;51.550;12.138;2023-03-19T08:32:02;8.77;;;5.93;;
12181;SDS011;6154;51.550;12.138;2023-03-19T08:34:32;7.75;;;5.90;;
12181;SDS011;6154;51.550;12.138;2023-03-19T08:37:00;11.93;;;6.00;;
12181;SDS011;6154;51.550;12.138;2023-03-19T08:39:28;7.07;;;5.35;;
12181;SDS011;6154;51.550;12.138;2023-03-19T08:41:57;8.38;;;6.12;;
12181;SDS011;6154;51.550;12.138;2023-03-19T08:44:25;9.43;;;6.10;;
12181;SDS011;6154;51.550;12.138;2023-03-19T08:46:54;7.85;;;5.57;;
12181;SDS011;6154;51.550;12.138;2023-03-19T08:49:22;8.57;;;5.80;;
12181;SDS011;6154;51.550;12.138;2023-03-19T08:51:51;7.68;;;5.78;;
12181;SDS011;6154;51.550;12.138;2023-03-19T08:54:20;9.70;;;6.03;;
12181;SDS011;6154;51.550;12.138;2023-03-19T08:56:49;7.97;;;5.87;;
12181;SDS011;6154;51.550;12.138;2023-03-19T08:59:17;8.43;;;6.28;;
12181;SDS011;6154;51.550;12.138;2023-03-19T09:01:45;8.27;;;5.87;;
12181;SDS011;6154;51.550;12.138;2023-03-19T09:04:17;10.35;;;6.60;;
12181;SDS011;6154;51.550;12.138;2023-03-19T09:06:45;12.02;;;6.80;;
12181;SDS011;6154;51.550;12.138;2023-03-19T09:09:18;10.98;;;6.82;;
12181;SDS011;6154;51.550;12.138;2023-03-19T09:11:47;8.25;;;5.97;;
12181;SDS011;6154;51.550;12.138;2023-03-19T09:14:15;13.05;;;7.62;;
12181;SDS011;6154;51.550;12.138;2023-03-19T09:16:45;10.18;;;6.55;;
12181;SDS011;6154;51.550;12.138;2023-03-19T09:19:14;7.65;;;6.00;;
12181;SDS011;6154;51.550;12.138;2023-03-19T09:21:42;8.07;;;6.32;;
12181;SDS011;6154;51.550;12.138;2023-03-19T09:24:11;7.18;;;6.10;;
12181;SDS011;6154;51.550;12.138;2023-03-19T09:26:40;7.53;;;5.90;;
12181;SDS011;6154;51.550;12.138;2023-03-19T09:29:08;10.02;;;6.25;;
12181;SDS011;6154;51.550;12.138;2023-03-19T09:31:39;16.02;;;12.27;;
12181;SDS011;6154;51.550;12.138;2023-03-19T09:34:07;16.92;;;10.18;;
12181;SDS011;6154;51.550;12.138;2023-03-19T09:36:35;10.70;;;7.15;;
12181;SDS011;6154;51.550;12.138;2023-03-19T09:39:04;9.18;;;6.68;;
12181;SDS011;6154;51.550;12.138;2023-03-19T09:41:34;7.53;;;5.60;;
12181;SDS011;6154;51.550;12.138;2023-03-19T09:44:12;10.07;;;6.93;;
12181;SDS011;6154;51.550;12.138;2023-03-19T09:46:48;8.35;;;5.90;;
12181;SDS011;6154;51.550;12.138;2023-03-19T09:49:20;7.60;;;5.35;;
12181;SDS011;6154;51.550;12.138;2023-03-19T09:51:52;7.62;;;5.35;;
12181;SDS011;6154;51.550;12.138;2023-03-19T09:54:27;8.23;;;5.57;;
12181;SDS011;6154;51.550;12.138;2023-03-19T09:56:59;6.30;;;5.15;;
12181;SDS011;6154;51.550;12.138;2023-03-19T09:59:28;7.55;;;4.97;;
12181;SDS011;6154;51.550;12.138;2023-03-19T10:01:58;8.23;;;5.10;;
12181;SDS011;6154;51.550;12.138;2023-03-19T10:04:36;5.80;;;5.07;;
12181;SDS011;6154;51.550;12.138;2023-03-19T10:07:12;7.32;;;5.15;;
12181;SDS011;6154;51.550;12.138;2023-03-19T10:09:53;7.87;;;5.07;;
12181;SDS011;6154;51.550;12.138;2023-03-19T10:12:41;11.25;;;4.70;;
12181;SDS011;6154;51.550;12.138;2023-03-19T10:15:20;9.43;;;6.95;;
12181;SDS011;6154;51.550;12.138;2023-03-19T10:17:58;7.47;;;5.50;;
12181;SDS011;6154;51.550;12.138;2023-03-19T10:20:32;7.15;;;5.03;;
12181;SDS011;6154;51.550;12.138;2023-03-19T10:23:21;7.53;;;4.90;;
12181;SDS011;6154;51.550;12.138;2023-03-19T10:25:56;6.03;;;4.75;;
12181;SDS011;6154;51.550;12.138;2023-03-19T10:28:28;8.18;;;4.20;;
12181;SDS011;6154;51.550;12.138;2023-03-19T10:31:00;8.98;;;4.45;;
12181;SDS011;6154;51.550;12.138;2023-03-19T10:33:41;5.18;;;4.60;;
12181;SDS011;6154;51.550;12.138;2023-03-19T10:36:12;10.30;;;4.85;;
12181;SDS011;6154;51.550;12.138;2023-03-19T10:38:42;6.05;;;4.57;;
12181;SDS011;6154;51.550;12.138;2023-03-19T10:41:22;11.60;;;5.12;;
12181;SDS011;6154;51.550;12.138;2023-03-19T10:43:59;6.50;;;4.25;;
12181;SDS011;6154;51.550;12.138;2023-03-19T10:46:35;5.20;;;4.30;;
12181;SDS011;6154;51.550;12.138;2023-03-19T10:49:04;6.72;;;4.53;;
12181;SDS011;6154;51.550;12.138;2023-03-19T10:51:37;8.13;;;4.60;;
12181;SDS011;6154;51.550;12.138;2023-03-19T10:54:16;9.63;;;4.60;;
12181;SDS011;6154;51.550;12.138;2023-03-19T10:56:49;5.65;;;3.92;;
12181;SDS011;6154;51.550;12.138;2023-03-19T10:59:23;4.85;;;4.07;;
12181;SDS011;6154;51.550;12.138;2023-03-19T11:01:56;4.60;;;3.95;;
12181;SDS011;6154;51.550;12.138;2023-03-19T11:04:26;5.25;;;4.10;;
12181;SDS011;6154;51.550;12.138;2023-03-19T11:06:55;7.22;;;4.60;;
12181;SDS011;6154;51.550;12.138;2023-03-19T11:09:32;7.62;;;4.55;;
12181;SDS011;6154;51.550;12.138;2023-03-19T11:12:05;7.20;;;5.03;;
12181;SDS011;6154;51.550;12.138;2023-03-19T11:14:45;6.85;;;5.35;;
12181;SDS011;6154;51.550;12.138;2023-03-19T11:17:24;6.87;;;5.03;;
12181;SDS011;6154;51.550;12.138;2023-03-19T11:20:18;10.20;;;4.85;;
12181;SDS011;6154;51.550;12.138;2023-03-19T11:22:50;6.82;;;4.53;;
12181;SDS011;6154;51.550;12.138;2023-03-19T11:25:22;5.53;;;3.97;;
12181;SDS011;6154;51.550;12.138;2023-03-19T11:27:56;6.82;;;4.22;;
12181;SDS011;6154;51.550;12.138;2023-03-19T11:30:30;6.00;;;4.15;;
12181;SDS011;6154;51.550;12.138;2023-03-19T11:33:07;5.25;;;4.18;;
12181;SDS011;6154;51.550;12.138;2023-03-19T11:35:47;6.87;;;3.83;;
12181;SDS011;6154;51.550;12.138;2023-03-19T11:38:22;6.03;;;3.80;;
12181;SDS011;6154;51.550;12.138;2023-03-19T11:41:00;4.43;;;2.95;;
12181;SDS011;6154;51.550;12.138;2023-03-19T11:43:45;5.68;;;3.72;;
12181;SDS011;6154;51.550;12.138;2023-03-19T11:46:35;4.97;;;4.00;;
12181;SDS011;6154;51.550;12.138;2023-03-19T11:49:12;5.53;;;3.53;;
12181;SDS011;6154;51.550;12.138;2023-03-19T11:51:51;4.40;;;3.58;;
12181;SDS011;6154;51.550;12.138;2023-03-19T11:54:27;5.35;;;3.35;;
12181;SDS011;6154;51.550;12.138;2023-03-19T11:57:02;7.10;;;3.53;;
12181;SDS011;6154;51.550;12.138;2023-03-19T11:59:43;4.57;;;3.78;;
12181;SDS011;6154;51.550;12.138;2023-03-19T12:05:23;5.85;;;3.72;;
12181;SDS011;6154;51.550;12.138;2023-03-19T12:08:01;5.37;;;3.60;;
12181;SDS011;6154;51.550;12.138;2023-03-19T12:10:51;4.40;;;3.20;;
12181;SDS011;6154;51.550;12.138;2023-03-19T12:13:42;5.62;;;3.40;;
12181;SDS011;6154;51.550;12.138;2023-03-19T12:16:20;5.03;;;3.80;;
12181;SDS011;6154;51.550;12.138;2023-03-19T12:19:04;7.55;;;3.50;;
12181;SDS011;6154;51.550;12.138;2023-03-19T12:21:44;3.80;;;3.40;;
12181;SDS011;6154;51.550;12.138;2023-03-19T12:24:23;3.58;;;3.08;;
12181;SDS011;6154;51.550;12.138;2023-03-19T12:27:01;4.07;;;3.12;;
12181;SDS011;6154;51.550;12.138;2023-03-19T12:29:38;6.45;;;3.20;;
12181;SDS011;6154;51.550;12.138;2023-03-19T12:32:15;4.22;;;3.25;;
12181;SDS011;6154;51.550;12.138;2023-03-19T12:34:54;3.67;;;3.33;;
12181;SDS011;6154;51.550;12.138;2023-03-19T12:37:27;8.90;;;3.50;;
12181;SDS011;6154;51.550;12.138;2023-03-19T12:40:04;5.03;;;3.33;;
12181;SDS011;6154;51.550;12.138;2023-03-19T12:42:42;5.25;;;3.15;;
12181;SDS011;6154;51.550;12.138;2023-03-19T12:45:14;3.62;;;2.40;;
12181;SDS011;6154;51.550;12.138;2023-03-19T12:47:51;5.57;;;2.78;;
12181;SDS011;6154;51.550;12.138;2023-03-19T12:50:26;4.85;;;2.58;;
12181;SDS011;6154;51.550;12.138;2023-03-19T12:52:58;3.42;;;2.80;;
12181;SDS011;6154;51.550;12.138;2023-03-19T12:55:32;2.53;;;2.28;;
12181;SDS011;6154;51.550;12.138;2023-03-19T12:58:05;3.15;;;2.87;;
12181;SDS011;6154;51.550;12.138;2023-03-19T13:00:44;4.78;;;2.83;;
12181;SDS011;6154;51.550;12.138;2023-03-19T13:03:18;2.25;;;2.03;;
12181;SDS011;6154;51.550;12.138;2023-03-19T13:05:54;5.80;;;2.70;;
12181;SDS011;6154;51.550;12.138;2023-03-19T13:08:28;6.35;;;2.62;;
12181;SDS011;6154;51.550;12.138;2023-03-19T13:11:00;3.17;;;2.33;;
12181;SDS011;6154;51.550;12.138;2023-03-19T13:13:35;3.37;;;2.30;;
12181;SDS011;6154;51.550;12.138;2023-03-19T13:16:11;2.53;;;1.83;;
12181;SDS011;6154;51.550;12.138;2023-03-19T13:18:49;4.20;;;2.85;;
12181;SDS011;6154;51.550;12.138;2023-03-19T13:21:27;3.60;;;2.22;;
12181;SDS011;6154;51.550;12.138;2023-03-19T13:24:00;8.75;;;5.18;;
12181;SDS011;6154;51.550;12.138;2023-03-19T13:26:35;13.73;;;6.97;;
12181;SDS011;6154;51.550;12.138;2023-03-19T13:29:07;31.67;;;18.02;;
12181;SDS011;6154;51.550;12.138;2023-03-19T13:31:42;8.20;;;4.80;;
12181;SDS011;6154;51.550;12.138;2023-03-19T13:34:23;5.28;;;3.05;;
12181;SDS011;6154;51.550;12.138;2023-03-19T13:36:58;6.15;;;4.75;;
12181;SDS011;6154;51.550;12.138;2023-03-19T13:39:30;2.70;;;1.80;;
12181;SDS011;6154;51.550;12.138;2023-03-19T13:42:10;2.00;;;1.90;;
12181;SDS011;6154;51.550;12.138;2023-03-19T13:44:51;3.42;;;2.78;;
12181;SDS011;6154;51.550;12.138;2023-03-19T13:47:35;4.45;;;2.65;;
12181;SDS011;6154;51.550;12.138;2023-03-19T13:50:22;7.07;;;2.20;;
12181;SDS011;6154;51.550;12.138;2023-03-19T13:53:18;2.45;;;1.92;;
12181;SDS011;6154;51.550;12.138;2023-03-19T13:55:51;4.03;;;2.10;;
12181;SDS011;6154;51.550;12.138;2023-03-19T13:58:22;3.37;;;1.70;;
12181;SDS011;6154;51.550;12.138;2023-03-19T14:01:10;1.95;;;1.45;;
12181;SDS011;6154;51.550;12.138;2023-03-19T14:03:59;2.97;;;1.40;;
12181;SDS011;6154;51.550;12.138;2023-03-19T14:06:30;2.70;;;1.58;;
12181;SDS011;6154;51.550;12.138;2023-03-19T14:09:04;2.78;;;1.33;;
12181;SDS011;6154;51.550;12.138;2023-03-19T14:11:34;3.05;;;1.23;;
12181;SDS011;6154;51.550;12.138;2023-03-19T14:14:05;3.17;;;1.37;;
12181;SDS011;6154;51.550;12.138;2023-03-19T14:16:41;1.58;;;1.30;;
12181;SDS011;6154;51.550;12.138;2023-03-19T14:19:15;1.75;;;1.08;;
12181;SDS011;6154;51.550;12.138;2023-03-19T14:22:00;1.60;;;1.50;;
12181;SDS011;6154;51.550;12.138;2023-03-19T14:24:37;3.80;;;1.33;;
12181;SDS011;6154;51.550;12.138;2023-03-19T14:27:25;1.80;;;1.20;;
12181;SDS011;6154;51.550;12.138;2023-03-19T14:30:00;1.35;;;1.08;;
12181;SDS011;6154;51.550;12.138;2023-03-19T14:32:35;1.42;;;0.90;;
12181;SDS011;6154;51.550;12.138;2023-03-19T14:35:07;1.35;;;1.25;;
12181;SDS011;6154;51.550;12.138;2023-03-19T14:37:43;2.92;;;1.52;;
12181;SDS011;6154;51.550;12.138;2023-03-19T14:40:18;3.62;;;1.98;;
12181;SDS011;6154;51.550;12.138;2023-03-19T14:42:57;3.15;;;1.80;;
12181;SDS011;6154;51.550;12.138;2023-03-19T14:45:41;3.45;;;2.03;;
12181;SDS011;6154;51.550;12.138;2023-03-19T14:48:22;2.85;;;1.83;;
12181;SDS011;6154;51.550;12.138;2023-03-19T14:54:21;2.80;;;1.30;;
12181;SDS011;6154;51.550;12.138;2023-03-19T14:56:56;2.97;;;1.00;;
12181;SDS011;6154;51.550;12.138;2023-03-19T14:59:24;2.30;;;0.95;;
12181;SDS011;6154;51.550;12.138;2023-03-19T15:01:52;2.45;;;1.10;;
12181;SDS011;6154;51.550;12.138;2023-03-19T15:04:21;2.03;;;1.05;;
12181;SDS011;6154;51.550;12.138;2023-03-19T15:06:53;1.37;;;0.90;;
12181;SDS011;6154;51.550;12.138;2023-03-19T15:09:25;2.25;;;1.02;;
12181;SDS011;6154;51.550;12.138;2023-03-19T15:12:18;1.37;;;0.75;;
12181;SDS011;6154;51.550;12.138;2023-03-19T15:15:07;0.98;;;0.75;;
12181;SDS011;6154;51.550;12.138;2023-03-19T15:17:55;1.52;;;1.08;;
12181;SDS011;6154;51.550;12.138;2023-03-19T15:20:32;2.25;;;1.00;;